sensor_id;sensor_type;location;lat;lon;timestamp;temperature;humidity
52675;DHT22;38569;52.722;6.440;2023-02-13T00:00:36;7.60;99.90
52675;DHT22;38569;52.722;6.440;2023-02-13T00:03:03;7.60;99.90
52675;DHT22;38569;52.722;6.440;2023-02-13T00:05:29;7.60;99.90
52675;DHT22;38569;52.722;6.440;2023-02-13T00:07:54;7.60;99.90
52675;DHT22;38569;52.722;6.440;2023-02-13T00:10:20;7.60;99.90
52675;DHT22;38569;52.722;6.440;2023-02-13T00:12:46;7.60;99.90
52675;DHT22;38569;52.722;6.440;2023-02-13T00:15:12;7.60;99.90
52675;DHT22;38569;52.722;6.440;2023-02-13T00:17:37;7.60;99.90
52675;DHT22;38569;52.722;6.440;2023-02-13T00:20:04;7.70;99.90
52675;DHT22;38569;52.722;6.440;2023-02-13T00:22:33;7.70;99.90
52675;DHT22;38569;52.722;6.440;2023-02-13T00:24:59;7.70;99.90
52675;DHT22;38569;52.722;6.440;2023-02-13T00:27:25;7.70;99.90
52675;DHT22;38569;52.722;6.440;2023-02-13T00:29:50;7.70;99.90
52675;DHT22;38569;52.722;6.440;2023-02-13T00:32:16;7.80;99.90
52675;DHT22;38569;52.722;6.440;2023-02-13T00:34:42;7.80;99.90
52675;DHT22;38569;52.722;6.440;2023-02-13T00:37:08;7.80;99.90
52675;DHT22;38569;52.722;6.440;2023-02-13T00:39:34;7.80;99.90
52675;DHT22;38569;52.722;6.440;2023-02-13T00:42:00;7.80;99.90
52675;DHT22;38569;52.722;6.440;2023-02-13T00:44:26;7.70;99.90
52675;DHT22;38569;52.722;6.440;2023-02-13T00:46:51;7.70;99.90
52675;DHT22;38569;52.722;6.440;2023-02-13T00:49:17;7.70;99.90
52675;DHT22;38569;52.722;6.440;2023-02-13T00:51:43;7.70;99.90
52675;DHT22;38569;52.722;6.440;2023-02-13T00:54:08;7.70;99.90
52675;DHT22;38569;52.722;6.440;2023-02-13T00:56:34;7.60;99.90
52675;DHT22;38569;52.722;6.440;2023-02-13T00:59:00;7.50;99.90
52675;DHT22;38569;52.722;6.440;2023-02-13T01:01:26;7.60;99.90
52675;DHT22;38569;52.722;6.440;2023-02-13T01:03:51;7.60;99.90
52675;DHT22;38569;52.722;6.440;2023-02-13T01:06:17;7.70;99.90
52675;DHT22;38569;52.722;6.440;2023-02-13T01:08:43;7.70;99.90
52675;DHT22;38569;52.722;6.440;2023-02-13T01:11:11;7.70;99.90
52675;DHT22;38569;52.722;6.440;2023-02-13T01:13:37;7.70;99.90
52675;DHT22;38569;52.722;6.440;2023-02-13T01:16:03;7.80;99.90
52675;DHT22;38569;52.722;6.440;2023-02-13T01:18:29;7.80;99.90
52675;DHT22;38569;52.722;6.440;2023-02-13T01:21:03;7.70;99.90
52675;DHT22;38569;52.722;6.440;2023-02-13T01:23:35;7.70;99.90
52675;DHT22;38569;52.722;6.440;2023-02-13T01:26:03;7.70;99.90
52675;DHT22;38569;52.722;6.440;2023-02-13T01:28:29;7.70;99.90
52675;DHT22;38569;52.722;6.440;2023-02-13T01:30:56;7.70;99.90
52675;DHT22;38569;52.722;6.440;2023-02-13T01:33:24;7.80;99.90
52675;DHT22;38569;52.722;6.440;2023-02-13T01:35:50;7.80;99.90
52675;DHT22;38569;52.722;6.440;2023-02-13T01:38:17;7.70;99.90
52675;DHT22;38569;52.722;6.440;2023-02-13T01:40:48;7.80;99.90
52675;DHT22;38569;52.722;6.440;2023-02-13T01:43:14;7.80;99.90
52675;DHT22;38569;52.722;6.440;2023-02-13T01:45:41;7.80;99.90
52675;DHT22;38569;52.722;6.440;2023-02-13T01:48:19;7.80;99.90
52675;DHT22;38569;52.722;6.440;2023-02-13T01:51:00;7.70;99.90
52675;DHT22;38569;52.722;6.440;2023-02-13T01:53:39;7.70;99.90
52675;DHT22;38569;52.722;6.440;2023-02-13T01:56:29;7.70;99.90
52675;DHT22;38569;52.722;6.440;2023-02-13T01:59:00;7.70;99.90
52675;DHT22;38569;52.722;6.440;2023-02-13T02:01:28;7.70;99.90
52675;DHT22;38569;52.722;6.440;2023-02-13T02:04:03;7.70;99.90
52675;DHT22;38569;52.722;6.440;2023-02-13T02:06:34;7.80;99.90
52675;DHT22;38569;52.722;6.440;2023-02-13T02:09:04;7.80;99.90
52675;DHT22;38569;52.722;6.440;2023-02-13T02:12:00;7.80;99.90
52675;DHT22;38569;52.722;6.440;2023-02-13T02:14:27;7.80;99.90
52675;DHT22;38569;52.722;6.440;2023-02-13T02:16:53;7.70;99.90
52675;DHT22;38569;52.722;6.440;2023-02-13T02:22:14;7.60;99.90
52675;DHT22;38569;52.722;6.440;2023-02-13T02:27:39;7.60;99.90
52675;DHT22;38569;52.722;6.440;2023-02-13T02:30:23;7.60;99.90
52675;DHT22;38569;52.722;6.440;2023-02-13T02:33:07;7.60;99.90
52675;DHT22;38569;52.722;6.440;2023-02-13T02:35:48;7.60;99.90
52675;DHT22;38569;52.722;6.440;2023-02-13T02:38:42;7.60;99.90
52675;DHT22;38569;52.722;6.440;2023-02-13T02:47:23;7.60;99.90
52675;DHT22;38569;52.722;6.440;2023-02-13T02:50:34;7.60;99.90
52675;DHT22;38569;52.722;6.440;2023-02-13T02:56:22;7.70;99.90
52675;DHT22;38569;52.722;6.440;2023-02-13T02:59:09;7.70;99.90
52675;DHT22;38569;52.722;6.440;2023-02-13T03:01:56;7.80;99.90
52675;DHT22;38569;52.722;6.440;2023-02-13T03:04:45;7.80;99.90
52675;DHT22;38569;52.722;6.440;2023-02-13T03:07:31;7.70;99.90
52675;DHT22;38569;52.722;6.440;2023-02-13T03:09:59;7.70;99.90
52675;DHT22;38569;52.722;6.440;2023-02-13T03:12:54;7.50;99.90
52675;DHT22;38569;52.722;6.440;2023-02-13T03:15:42;7.40;99.90
52675;DHT22;38569;52.722;6.440;2023-02-13T03:18:35;7.30;99.90
52675;DHT22;38569;52.722;6.440;2023-02-13T03:24:48;7.30;99.90
52675;DHT22;38569;52.722;6.440;2023-02-13T03:27:47;7.50;99.90
52675;DHT22;38569;52.722;6.440;2023-02-13T03:35:48;7.50;99.90
52675;DHT22;38569;52.722;6.440;2023-02-13T03:41:19;7.50;99.90
52675;DHT22;38569;52.722;6.440;2023-02-13T03:43:53;7.60;99.90
52675;DHT22;38569;52.722;6.440;2023-02-13T03:46:20;7.60;99.90
52675;DHT22;38569;52.722;6.440;2023-02-13T03:48:46;7.60;99.90
52675;DHT22;38569;52.722;6.440;2023-02-13T03:51:40;7.50;99.90
52675;DHT22;38569;52.722;6.440;2023-02-13T03:54:25;7.40;99.90
52675;DHT22;38569;52.722;6.440;2023-02-13T03:57:14;7.40;99.90
52675;DHT22;38569;52.722;6.440;2023-02-13T04:00:01;7.30;99.90
52675;DHT22;38569;52.722;6.440;2023-02-13T04:02:31;7.30;99.90
52675;DHT22;38569;52.722;6.440;2023-02-13T04:05:21;7.40;99.90
52675;DHT22;38569;52.722;6.440;2023-02-13T04:07:48;7.40;99.90
52675;DHT22;38569;52.722;6.440;2023-02-13T04:10:16;7.50;99.90
52675;DHT22;38569;52.722;6.440;2023-02-13T04:15:47;7.50;99.90
52675;DHT22;38569;52.722;6.440;2023-02-13T04:18:21;7.60;99.90
52675;DHT22;38569;52.722;6.440;2023-02-13T04:20:48;7.60;99.90
52675;DHT22;38569;52.722;6.440;2023-02-13T04:23:14;7.60;99.90
52675;DHT22;38569;52.722;6.440;2023-02-13T04:25:42;7.60;99.90
52675;DHT22;38569;52.722;6.440;2023-02-13T04:28:08;7.60;99.90
52675;DHT22;38569;52.722;6.440;2023-02-13T04:30:34;7.50;99.90
52675;DHT22;38569;52.722;6.440;2023-02-13T04:33:00;7.40;99.90
52675;DHT22;38569;52.722;6.440;2023-02-13T04:35:26;7.40;99.90
52675;DHT22;38569;52.722;6.440;2023-02-13T04:37:51;7.40;99.90
52675;DHT22;38569;52.722;6.440;2023-02-13T04:40:17;7.30;99.90
52675;DHT22;38569;52.722;6.440;2023-02-13T04:42:43;7.30;99.90
52675;DHT22;38569;52.722;6.440;2023-02-13T04:45:11;7.30;99.90
52675;DHT22;38569;52.722;6.440;2023-02-13T04:47:37;7.30;99.90
52675;DHT22;38569;52.722;6.440;2023-02-13T04:50:03;7.40;99.90
52675;DHT22;38569;52.722;6.440;2023-02-13T04:52:28;7.40;99.90
52675;DHT22;38569;52.722;6.440;2023-02-13T04:54:54;7.40;99.90
52675;DHT22;38569;52.722;6.440;2023-02-13T04:57:20;7.30;99.90
52675;DHT22;38569;52.722;6.440;2023-02-13T04:59:45;7.20;99.90
52675;DHT22;38569;52.722;6.440;2023-02-13T05:02:11;7.20;99.90
52675;DHT22;38569;52.722;6.440;2023-02-13T05:04:37;7.20;99.90
52675;DHT22;38569;52.722;6.440;2023-02-13T05:07:02;7.20;99.90
52675;DHT22;38569;52.722;6.440;2023-02-13T05:09:28;7.30;99.90
52675;DHT22;38569;52.722;6.440;2023-02-13T05:11:54;7.30;99.90
52675;DHT22;38569;52.722;6.440;2023-02-13T05:14:20;7.40;99.90
52675;DHT22;38569;52.722;6.440;2023-02-13T05:16:46;7.40;99.90
52675;DHT22;38569;52.722;6.440;2023-02-13T05:19:15;7.30;99.90
52675;DHT22;38569;52.722;6.440;2023-02-13T05:21:41;7.30;99.90
52675;DHT22;38569;52.722;6.440;2023-02-13T05:24:25;7.20;99.90
52675;DHT22;38569;52.722;6.440;2023-02-13T05:26:50;7.20;99.90
52675;DHT22;38569;52.722;6.440;2023-02-13T05:29:16;7.10;99.90
52675;DHT22;38569;52.722;6.440;2023-02-13T05:31:52;7.10;99.90
52675;DHT22;38569;52.722;6.440;2023-02-13T05:34:23;7.10;99.90
52675;DHT22;38569;52.722;6.440;2023-02-13T05:36:50;7.20;99.90
52675;DHT22;38569;52.722;6.440;2023-02-13T05:39:16;7.20;99.90
52675;DHT22;38569;52.722;6.440;2023-02-13T05:41:43;7.20;99.90
52675;DHT22;38569;52.722;6.440;2023-02-13T05:44:09;7.20;99.90
52675;DHT22;38569;52.722;6.440;2023-02-13T05:46:36;7.30;99.90
52675;DHT22;38569;52.722;6.440;2023-02-13T05:49:03;7.30;99.90
52675;DHT22;38569;52.722;6.440;2023-02-13T05:51:29;7.20;99.90
52675;DHT22;38569;52.722;6.440;2023-02-13T05:53:55;7.20;99.90
52675;DHT22;38569;52.722;6.440;2023-02-13T05:56:21;7.20;99.90
52675;DHT22;38569;52.722;6.440;2023-02-13T05:58:49;7.20;99.90
52675;DHT22;38569;52.722;6.440;2023-02-13T06:01:15;7.30;99.90
52675;DHT22;38569;52.722;6.440;2023-02-13T06:03:41;7.40;99.90
52675;DHT22;38569;52.722;6.440;2023-02-13T06:06:07;7.40;99.90
52675;DHT22;38569;52.722;6.440;2023-02-13T06:08:33;7.30;99.90
52675;DHT22;38569;52.722;6.440;2023-02-13T06:10:59;7.30;99.90
52675;DHT22;38569;52.722;6.440;2023-02-13T06:13:24;7.20;99.90
52675;DHT22;38569;52.722;6.440;2023-02-13T06:15:50;7.20;99.90
52675;DHT22;38569;52.722;6.440;2023-02-13T06:18:16;7.10;99.90
52675;DHT22;38569;52.722;6.440;2023-02-13T06:20:42;7.10;99.90
52675;DHT22;38569;52.722;6.440;2023-02-13T06:23:08;7.10;99.90
52675;DHT22;38569;52.722;6.440;2023-02-13T06:25:34;7.10;99.90
52675;DHT22;38569;52.722;6.440;2023-02-13T06:28:01;7.10;99.90
52675;DHT22;38569;52.722;6.440;2023-02-13T06:30:27;7.10;99.90
52675;DHT22;38569;52.722;6.440;2023-02-13T06:32:53;7.10;99.90
52675;DHT22;38569;52.722;6.440;2023-02-13T06:35:19;7.00;99.90
52675;DHT22;38569;52.722;6.440;2023-02-13T06:37:45;7.00;99.90
52675;DHT22;38569;52.722;6.440;2023-02-13T06:40:12;7.00;99.90
52675;DHT22;38569;52.722;6.440;2023-02-13T06:42:38;7.10;99.90
52675;DHT22;38569;52.722;6.440;2023-02-13T06:45:04;7.10;99.90
52675;DHT22;38569;52.722;6.440;2023-02-13T06:47:30;7.10;99.90
52675;DHT22;38569;52.722;6.440;2023-02-13T06:49:56;7.10;99.90
52675;DHT22;38569;52.722;6.440;2023-02-13T06:52:22;7.10;99.90
52675;DHT22;38569;52.722;6.440;2023-02-13T06:54:48;7.10;99.90
52675;DHT22;38569;52.722;6.440;2023-02-13T06:57:14;7.10;99.90
52675;DHT22;38569;52.722;6.440;2023-02-13T06:59:40;7.10;99.90
52675;DHT22;38569;52.722;6.440;2023-02-13T07:02:08;7.10;99.90
52675;DHT22;38569;52.722;6.440;2023-02-13T07:04:34;7.10;99.90
52675;DHT22;38569;52.722;6.440;2023-02-13T07:07:00;7.10;99.90
52675;DHT22;38569;52.722;6.440;2023-02-13T07:09:26;7.20;99.90
52675;DHT22;38569;52.722;6.440;2023-02-13T07:11:52;7.20;99.90
52675;DHT22;38569;52.722;6.440;2023-02-13T07:14:20;7.10;99.90
52675;DHT22;38569;52.722;6.440;2023-02-13T07:16:46;7.20;99.90
52675;DHT22;38569;52.722;6.440;2023-02-13T07:19:11;7.20;99.90
52675;DHT22;38569;52.722;6.440;2023-02-13T07:21:37;7.30;99.90
52675;DHT22;38569;52.722;6.440;2023-02-13T07:24:04;7.30;99.90
52675;DHT22;38569;52.722;6.440;2023-02-13T07:26:29;7.30;99.90
52675;DHT22;38569;52.722;6.440;2023-02-13T07:28:55;7.30;99.90
52675;DHT22;38569;52.722;6.440;2023-02-13T07:31:21;7.30;99.90
52675;DHT22;38569;52.722;6.440;2023-02-13T07:33:50;7.30;99.90
52675;DHT22;38569;52.722;6.440;2023-02-13T07:36:15;7.30;99.90
52675;DHT22;38569;52.722;6.440;2023-02-13T07:38:41;7.40;99.90
52675;DHT22;38569;52.722;6.440;2023-02-13T07:41:07;7.40;99.90
52675;DHT22;38569;52.722;6.440;2023-02-13T07:43:33;7.40;99.90
52675;DHT22;38569;52.722;6.440;2023-02-13T07:46:00;7.40;99.90
52675;DHT22;38569;52.722;6.440;2023-02-13T07:48:27;7.40;99.90
52675;DHT22;38569;52.722;6.440;2023-02-13T07:50:53;7.50;99.90
52675;DHT22;38569;52.722;6.440;2023-02-13T07:53:19;7.40;99.90
52675;DHT22;38569;52.722;6.440;2023-02-13T07:55:45;7.50;99.90
52675;DHT22;38569;52.722;6.440;2023-02-13T07:58:11;7.50;99.90
52675;DHT22;38569;52.722;6.440;2023-02-13T08:00:37;7.50;99.90
52675;DHT22;38569;52.722;6.440;2023-02-13T08:03:02;7.50;99.90
52675;DHT22;38569;52.722;6.440;2023-02-13T08:05:30;7.50;99.90
52675;DHT22;38569;52.722;6.440;2023-02-13T08:07:56;7.50;99.90
52675;DHT22;38569;52.722;6.440;2023-02-13T08:10:22;7.50;99.90
52675;DHT22;38569;52.722;6.440;2023-02-13T08:13:06;7.60;99.90
52675;DHT22;38569;52.722;6.440;2023-02-13T08:15:34;7.60;99.90
52675;DHT22;38569;52.722;6.440;2023-02-13T08:18:00;7.60;99.90
52675;DHT22;38569;52.722;6.440;2023-02-13T08:20:26;7.60;99.90
52675;DHT22;38569;52.722;6.440;2023-02-13T08:22:51;7.70;99.90
52675;DHT22;38569;52.722;6.440;2023-02-13T08:25:19;7.70;99.90
52675;DHT22;38569;52.722;6.440;2023-02-13T08:27:45;7.80;99.90
52675;DHT22;38569;52.722;6.440;2023-02-13T08:30:11;7.80;99.90
52675;DHT22;38569;52.722;6.440;2023-02-13T08:32:37;7.90;99.90
52675;DHT22;38569;52.722;6.440;2023-02-13T08:35:03;7.90;99.90
52675;DHT22;38569;52.722;6.440;2023-02-13T08:37:29;7.90;99.90
52675;DHT22;38569;52.722;6.440;2023-02-13T08:39:55;8.00;99.90
52675;DHT22;38569;52.722;6.440;2023-02-13T08:42:20;8.00;99.90
52675;DHT22;38569;52.722;6.440;2023-02-13T08:44:46;8.00;99.90
52675;DHT22;38569;52.722;6.440;2023-02-13T08:47:12;8.00;99.90
52675;DHT22;38569;52.722;6.440;2023-02-13T08:49:38;8.00;99.90
52675;DHT22;38569;52.722;6.440;2023-02-13T08:52:03;8.00;99.90
52675;DHT22;38569;52.722;6.440;2023-02-13T08:54:30;8.10;99.90
52675;DHT22;38569;52.722;6.440;2023-02-13T08:56:56;8.10;99.90
52675;DHT22;38569;52.722;6.440;2023-02-13T08:59:22;8.10;99.90
52675;DHT22;38569;52.722;6.440;2023-02-13T09:01:48;8.10;99.90
52675;DHT22;38569;52.722;6.440;2023-02-13T09:04:13;8.20;99.90
52675;DHT22;38569;52.722;6.440;2023-02-13T09:06:43;8.30;99.90
52675;DHT22;38569;52.722;6.440;2023-02-13T09:09:09;8.30;99.90
52675;DHT22;38569;52.722;6.440;2023-02-13T09:11:35;8.30;99.90
52675;DHT22;38569;52.722;6.440;2023-02-13T09:14:01;8.30;99.90
52675;DHT22;38569;52.722;6.440;2023-02-13T09:16:26;8.30;99.90
52675;DHT22;38569;52.722;6.440;2023-02-13T09:18:52;8.40;99.90
52675;DHT22;38569;52.722;6.440;2023-02-13T09:21:20;8.50;99.90
52675;DHT22;38569;52.722;6.440;2023-02-13T09:23:47;8.50;99.90
52675;DHT22;38569;52.722;6.440;2023-02-13T09:26:14;8.50;99.90
52675;DHT22;38569;52.722;6.440;2023-02-13T09:28:40;8.50;99.90
52675;DHT22;38569;52.722;6.440;2023-02-13T09:31:18;8.60;99.90
52675;DHT22;38569;52.722;6.440;2023-02-13T09:33:45;8.60;99.90
52675;DHT22;38569;52.722;6.440;2023-02-13T09:36:14;8.60;99.90
52675;DHT22;38569;52.722;6.440;2023-02-13T09:38:41;8.70;99.90
52675;DHT22;38569;52.722;6.440;2023-02-13T09:41:22;8.70;99.90
52675;DHT22;38569;52.722;6.440;2023-02-13T09:46:20;8.80;99.90
52675;DHT22;38569;52.722;6.440;2023-02-13T09:48:49;9.00;99.90
52675;DHT22;38569;52.722;6.440;2023-02-13T09:51:18;9.10;99.90
52675;DHT22;38569;52.722;6.440;2023-02-13T09:54:00;9.10;99.90
52675;DHT22;38569;52.722;6.440;2023-02-13T10:01:58;9.40;99.90
52675;DHT22;38569;52.722;6.440;2023-02-13T10:12:30;9.60;99.90
52675;DHT22;38569;52.722;6.440;2023-02-13T10:18:04;9.90;99.90
52675;DHT22;38569;52.722;6.440;2023-02-13T10:26:01;10.20;99.90
52675;DHT22;38569;52.722;6.440;2023-02-13T10:31:16;10.50;99.90
52675;DHT22;38569;52.722;6.440;2023-02-13T10:33:51;10.70;99.90
52675;DHT22;38569;52.722;6.440;2023-02-13T10:36:38;10.80;99.90
52675;DHT22;38569;52.722;6.440;2023-02-13T10:44:45;11.00;99.90
52675;DHT22;38569;52.722;6.440;2023-02-13T11:01:30;11.10;99.90
52675;DHT22;38569;52.722;6.440;2023-02-13T11:03:51;11.20;99.90
52675;DHT22;38569;52.722;6.440;2023-02-13T11:06:27;11.30;99.90
52675;DHT22;38569;52.722;6.440;2023-02-13T11:08:54;11.40;99.90
52675;DHT22;38569;52.722;6.440;2023-02-13T11:14:22;11.50;99.90
52675;DHT22;38569;52.722;6.440;2023-02-13T11:19:34;11.50;99.90
52675;DHT22;38569;52.722;6.440;2023-02-13T11:22:04;11.60;99.90
52675;DHT22;38569;52.722;6.440;2023-02-13T11:24:32;11.70;99.90
52675;DHT22;38569;52.722;6.440;2023-02-13T11:27:06;11.80;99.90
52675;DHT22;38569;52.722;6.440;2023-02-13T11:29:36;11.80;99.90
52675;DHT22;38569;52.722;6.440;2023-02-13T11:34:40;11.70;99.90
52675;DHT22;38569;52.722;6.440;2023-02-13T11:39:34;11.80;99.90
52675;DHT22;38569;52.722;6.440;2023-02-13T11:42:00;11.80;99.90
52675;DHT22;38569;52.722;6.440;2023-02-13T11:44:28;11.80;99.90
52675;DHT22;38569;52.722;6.440;2023-02-13T11:46:56;11.90;99.90
52675;DHT22;38569;52.722;6.440;2023-02-13T11:49:25;12.00;99.90
52675;DHT22;38569;52.722;6.440;2023-02-13T11:51:54;12.20;99.90
52675;DHT22;38569;52.722;6.440;2023-02-13T11:54:42;12.20;99.90
52675;DHT22;38569;52.722;6.440;2023-02-13T11:57:28;12.30;99.90
52675;DHT22;38569;52.722;6.440;2023-02-13T11:59:54;12.40;99.90
52675;DHT22;38569;52.722;6.440;2023-02-13T12:02:47;12.60;99.90
52675;DHT22;38569;52.722;6.440;2023-02-13T12:05:23;12.60;99.90
52675;DHT22;38569;52.722;6.440;2023-02-13T12:07:49;12.40;99.90
52675;DHT22;38569;52.722;6.440;2023-02-13T12:10:21;12.30;99.90
52675;DHT22;38569;52.722;6.440;2023-02-13T12:13:05;12.60;99.90
52675;DHT22;38569;52.722;6.440;2023-02-13T12:15:36;12.80;99.90
52675;DHT22;38569;52.722;6.440;2023-02-13T12:39:16;12.90;99.90
52675;DHT22;38569;52.722;6.440;2023-02-13T12:42:20;12.70;99.90
52675;DHT22;38569;52.722;6.440;2023-02-13T12:47:23;12.80;99.90
52675;DHT22;38569;52.722;6.440;2023-02-13T13:26:01;12.80;99.90
52675;DHT22;38569;52.722;6.440;2023-02-13T13:28:33;12.80;99.90
52675;DHT22;38569;52.722;6.440;2023-02-13T13:31:01;12.90;99.90
52675;DHT22;38569;52.722;6.440;2023-02-13T13:33:27;12.80;99.90
52675;DHT22;38569;52.722;6.440;2023-02-13T13:35:58;12.80;99.90
52675;DHT22;38569;52.722;6.440;2023-02-13T13:49:56;13.00;99.90
52675;DHT22;38569;52.722;6.440;2023-02-13T13:52:35;12.90;99.90
52675;DHT22;38569;52.722;6.440;2023-02-13T13:55:04;12.90;99.90
52675;DHT22;38569;52.722;6.440;2023-02-13T14:05:27;13.80;99.90
52675;DHT22;38569;52.722;6.440;2023-02-13T14:07:59;14.10;99.90
52675;DHT22;38569;52.722;6.440;2023-02-13T14:20:49;14.60;99.90
52675;DHT22;38569;52.722;6.440;2023-02-13T14:31:27;14.10;99.90
52675;DHT22;38569;52.722;6.440;2023-02-13T14:33:58;14.00;99.90
52675;DHT22;38569;52.722;6.440;2023-02-13T14:36:42;13.90;99.90
52675;DHT22;38569;52.722;6.440;2023-02-13T14:39:29;14.00;99.90
52675;DHT22;38569;52.722;6.440;2023-02-13T14:41:58;14.10;99.90
52675;DHT22;38569;52.722;6.440;2023-02-13T14:44:33;14.30;99.90
52675;DHT22;38569;52.722;6.440;2023-02-13T14:47:13;14.40;99.90
52675;DHT22;38569;52.722;6.440;2023-02-13T14:49:39;14.20;99.90
52675;DHT22;38569;52.722;6.440;2023-02-13T14:52:15;13.90;99.90
52675;DHT22;38569;52.722;6.440;2023-02-13T14:54:49;13.90;99.90
52675;DHT22;38569;52.722;6.440;2023-02-13T14:57:26;13.90;99.90
52675;DHT22;38569;52.722;6.440;2023-02-13T14:59:56;13.60;99.90
52675;DHT22;38569;52.722;6.440;2023-02-13T15:02:28;13.30;99.90
52675;DHT22;38569;52.722;6.440;2023-02-13T15:05:10;13.30;99.90
52675;DHT22;38569;52.722;6.440;2023-02-13T15:10:44;12.80;99.90
52675;DHT22;38569;52.722;6.440;2023-02-13T15:13:20;12.80;99.90
52675;DHT22;38569;52.722;6.440;2023-02-13T15:15:52;12.60;99.90
52675;DHT22;38569;52.722;6.440;2023-02-13T15:18:28;12.60;99.90
52675;DHT22;38569;52.722;6.440;2023-02-13T15:21:33;12.60;99.90
52675;DHT22;38569;52.722;6.440;2023-02-13T15:27:19;12.50;99.90
52675;DHT22;38569;52.722;6.440;2023-02-13T15:30:00;12.20;99.90
52675;DHT22;38569;52.722;6.440;2023-02-13T15:32:31;12.00;99.90
52675;DHT22;38569;52.722;6.440;2023-02-13T15:35:09;11.90;99.90
52675;DHT22;38569;52.722;6.440;2023-02-13T15:37:34;11.80;99.90
52675;DHT22;38569;52.722;6.440;2023-02-13T15:42:51;11.60;99.90
52675;DHT22;38569;52.722;6.440;2023-02-13T15:45:29;11.50;99.90
52675;DHT22;38569;52.722;6.440;2023-02-13T15:48:15;11.50;99.90
52675;DHT22;38569;52.722;6.440;2023-02-13T15:50:41;11.40;99.90
52675;DHT22;38569;52.722;6.440;2023-02-13T15:53:13;11.20;99.90
52675;DHT22;38569;52.722;6.440;2023-02-13T15:55:40;11.10;99.90
52675;DHT22;38569;52.722;6.440;2023-02-13T15:58:11;11.10;99.90
52675;DHT22;38569;52.722;6.440;2023-02-13T16:00:40;10.90;99.90
52675;DHT22;38569;52.722;6.440;2023-02-13T16:05:40;10.70;99.90
52675;DHT22;38569;52.722;6.440;2023-02-13T16:08:33;10.60;99.90
52675;DHT22;38569;52.722;6.440;2023-02-13T16:11:25;10.50;99.90
52675;DHT22;38569;52.722;6.440;2023-02-13T16:14:24;10.40;99.90
52675;DHT22;38569;52.722;6.440;2023-02-13T16:16:59;10.20;99.90
52675;DHT22;38569;52.722;6.440;2023-02-13T16:19:36;10.10;99.90
52675;DHT22;38569;52.722;6.440;2023-02-13T16:27:59;9.80;99.90
52675;DHT22;38569;52.722;6.440;2023-02-13T16:30:36;9.70;99.90
52675;DHT22;38569;52.722;6.440;2023-02-13T16:35:46;9.40;99.90
52675;DHT22;38569;52.722;6.440;2023-02-13T16:41:00;9.20;99.90
52675;DHT22;38569;52.722;6.440;2023-02-13T16:56:43;8.30;99.90
52675;DHT22;38569;52.722;6.440;2023-02-13T17:01:43;8.00;99.90
52675;DHT22;38569;52.722;6.440;2023-02-13T17:04:22;7.90;99.90
52675;DHT22;38569;52.722;6.440;2023-02-13T17:06:53;7.80;99.90
52675;DHT22;38569;52.722;6.440;2023-02-13T17:09:19;7.60;99.90
52675;DHT22;38569;52.722;6.440;2023-02-13T17:11:49;7.50;99.90
52675;DHT22;38569;52.722;6.440;2023-02-13T17:14:16;7.30;99.90
52675;DHT22;38569;52.722;6.440;2023-02-13T17:16:42;7.30;99.90
52675;DHT22;38569;52.722;6.440;2023-02-13T17:19:08;7.20;99.90
52675;DHT22;38569;52.722;6.440;2023-02-13T17:21:34;7.00;99.90
52675;DHT22;38569;52.722;6.440;2023-02-13T17:24:01;6.90;99.90
52675;DHT22;38569;52.722;6.440;2023-02-13T17:26:27;6.80;99.90
52675;DHT22;38569;52.722;6.440;2023-02-13T17:28:52;6.70;99.90
52675;DHT22;38569;52.722;6.440;2023-02-13T17:31:18;6.60;99.90
52675;DHT22;38569;52.722;6.440;2023-02-13T17:33:44;6.60;99.90
52675;DHT22;38569;52.722;6.440;2023-02-13T17:36:13;6.50;99.90
52675;DHT22;38569;52.722;6.440;2023-02-13T17:38:39;6.50;99.90
52675;DHT22;38569;52.722;6.440;2023-02-13T17:41:10;6.40;99.90
52675;DHT22;38569;52.722;6.440;2023-02-13T17:43:37;6.30;99.90
52675;DHT22;38569;52.722;6.440;2023-02-13T17:46:06;6.20;99.90
52675;DHT22;38569;52.722;6.440;2023-02-13T17:48:33;6.20;99.90
52675;DHT22;38569;52.722;6.440;2023-02-13T17:50:59;6.10;99.90
52675;DHT22;38569;52.722;6.440;2023-02-13T17:53:29;6.00;99.90
52675;DHT22;38569;52.722;6.440;2023-02-13T17:55:55;6.00;99.90
52675;DHT22;38569;52.722;6.440;2023-02-13T17:58:21;5.90;99.90
52675;DHT22;38569;52.722;6.440;2023-02-13T18:00:47;5.90;99.90
52675;DHT22;38569;52.722;6.440;2023-02-13T18:03:13;5.80;99.90
52675;DHT22;38569;52.722;6.440;2023-02-13T18:05:39;5.70;99.90
52675;DHT22;38569;52.722;6.440;2023-02-13T18:08:06;5.70;99.90
52675;DHT22;38569;52.722;6.440;2023-02-13T18:10:35;5.60;99.90
52675;DHT22;38569;52.722;6.440;2023-02-13T18:13:01;5.60;99.90
52675;DHT22;38569;52.722;6.440;2023-02-13T18:15:31;5.50;99.90
52675;DHT22;38569;52.722;6.440;2023-02-13T18:17:58;5.50;99.90
52675;DHT22;38569;52.722;6.440;2023-02-13T18:20:23;5.40;99.90
52675;DHT22;38569;52.722;6.440;2023-02-13T18:22:49;5.30;99.90
52675;DHT22;38569;52.722;6.440;2023-02-13T18:25:16;5.20;99.90
52675;DHT22;38569;52.722;6.440;2023-02-13T18:27:42;5.30;99.90
52675;DHT22;38569;52.722;6.440;2023-02-13T18:30:10;5.20;99.90
52675;DHT22;38569;52.722;6.440;2023-02-13T18:32:36;5.10;99.90
52675;DHT22;38569;52.722;6.440;2023-02-13T18:35:02;5.10;99.90
52675;DHT22;38569;52.722;6.440;2023-02-13T18:37:28;5.00;99.90
52675;DHT22;38569;52.722;6.440;2023-02-13T18:39:55;5.00;99.90
52675;DHT22;38569;52.722;6.440;2023-02-13T18:42:21;4.80;99.90
52675;DHT22;38569;52.722;6.440;2023-02-13T18:44:46;4.90;99.90
52675;DHT22;38569;52.722;6.440;2023-02-13T18:47:12;4.70;99.90
52675;DHT22;38569;52.722;6.440;2023-02-13T18:49:38;4.70;99.90
52675;DHT22;38569;52.722;6.440;2023-02-13T18:52:05;4.70;99.90
52675;DHT22;38569;52.722;6.440;2023-02-13T18:54:31;4.70;99.90
52675;DHT22;38569;52.722;6.440;2023-02-13T18:56:56;4.60;99.90
52675;DHT22;38569;52.722;6.440;2023-02-13T18:59:22;4.60;99.90
52675;DHT22;38569;52.722;6.440;2023-02-13T19:01:48;4.60;99.90
52675;DHT22;38569;52.722;6.440;2023-02-13T19:04:15;4.60;99.90
52675;DHT22;38569;52.722;6.440;2023-02-13T19:06:42;4.50;99.90
52675;DHT22;38569;52.722;6.440;2023-02-13T19:09:08;4.50;99.90
52675;DHT22;38569;52.722;6.440;2023-02-13T19:11:35;4.40;99.90
52675;DHT22;38569;52.722;6.440;2023-02-13T19:14:03;4.40;99.90
52675;DHT22;38569;52.722;6.440;2023-02-13T19:16:30;4.50;99.90
52675;DHT22;38569;52.722;6.440;2023-02-13T19:18:58;4.40;99.90
52675;DHT22;38569;52.722;6.440;2023-02-13T19:21:26;4.40;99.90
52675;DHT22;38569;52.722;6.440;2023-02-13T19:23:52;4.30;99.90
52675;DHT22;38569;52.722;6.440;2023-02-13T19:26:22;4.20;99.90
52675;DHT22;38569;52.722;6.440;2023-02-13T19:28:48;4.20;99.90
52675;DHT22;38569;52.722;6.440;2023-02-13T19:31:17;4.20;99.90
52675;DHT22;38569;52.722;6.440;2023-02-13T19:33:43;4.10;99.90
52675;DHT22;38569;52.722;6.440;2023-02-13T19:36:12;4.10;99.90
52675;DHT22;38569;52.722;6.440;2023-02-13T19:38:39;4.10;99.90
52675;DHT22;38569;52.722;6.440;2023-02-13T19:41:11;4.10;99.90
52675;DHT22;38569;52.722;6.440;2023-02-13T19:43:37;4.10;99.90